createdAt,value
2024-02-02T00:00:07.980Z,0.65
2024-02-02T00:02:38.754Z,0.74
2024-02-02T00:05:06.269Z,0.58
2024-02-02T00:07:33.672Z,1.08
2024-02-02T00:10:00.861Z,0.81
2024-02-02T00:12:28.305Z,1.17
2024-02-02T00:14:55.328Z,1.29
2024-02-02T00:17:22.373Z,1.26
2024-02-02T00:19:49.319Z,1.04
2024-02-02T00:22:16.237Z,0.86
2024-02-02T00:24:43.053Z,1.50
2024-02-02T00:27:09.868Z,1.31
2024-02-02T00:29:36.805Z,1.17
2024-02-02T00:32:03.956Z,1.42
2024-02-02T00:34:30.857Z,1.51
2024-02-02T00:36:57.734Z,1.61
2024-02-02T00:39:24.710Z,1.68
2024-02-02T00:41:51.546Z,1.99
2024-02-02T00:44:18.321Z,1.88
2024-02-02T00:46:45.104Z,1.86
2024-02-02T00:49:11.909Z,2.12
2024-02-02T00:51:38.792Z,2.30
2024-02-02T00:54:05.674Z,2.39
2024-02-02T00:56:32.539Z,2.15
2024-02-02T00:58:59.384Z,1.94
2024-02-02T01:01:26.433Z,1.57
2024-02-02T01:03:53.336Z,2.22
2024-02-02T01:06:20.317Z,1.50
2024-02-02T01:08:47.322Z,1.66
2024-02-02T01:11:14.178Z,1.18
2024-02-02T01:13:40.971Z,1.65
2024-02-02T01:16:08.000Z,1.30
2024-02-02T01:18:34.948Z,1.57
2024-02-02T01:21:01.829Z,1.25
2024-02-02T01:23:28.713Z,1.46
2024-02-02T01:25:55.516Z,1.31
2024-02-02T01:28:22.364Z,1.06
2024-02-02T01:30:49.237Z,0.92
2024-02-02T01:33:16.296Z,0.75
2024-02-02T01:35:51.098Z,0.79
2024-02-02T01:38:17.887Z,0.77
2024-02-02T01:40:45.209Z,0.83
2024-02-02T01:43:13.021Z,0.90
2024-02-02T01:45:40.314Z,0.94
2024-02-02T01:48:09.177Z,1.45
2024-02-02T01:50:36.185Z,0.98
2024-02-02T01:53:03.020Z,0.75
2024-02-02T01:55:29.860Z,0.85
2024-02-02T01:57:56.744Z,0.77
2024-02-02T02:00:23.662Z,0.91
2024-02-02T02:02:50.568Z,0.94
2024-02-02T02:05:17.428Z,1.22
2024-02-02T02:07:45.701Z,1.50
2024-02-02T02:10:14.398Z,2.23
2024-02-02T02:12:41.820Z,2.12
2024-02-02T02:15:11.323Z,1.92
2024-02-02T02:17:40.592Z,1.64
2024-02-02T02:20:12.078Z,1.50
2024-02-02T02:22:39.076Z,1.41
2024-02-02T02:25:06.541Z,1.67
2024-02-02T02:27:33.963Z,1.36
2024-02-02T02:30:02.386Z,1.38
2024-02-02T02:32:29.393Z,1.50
2024-02-02T02:34:56.537Z,0.89
2024-02-02T02:37:23.548Z,0.82
2024-02-02T02:39:50.795Z,0.83
2024-02-02T02:42:17.526Z,0.64
2024-02-02T02:44:44.460Z,-0.15
2024-02-02T02:47:12.323Z,0.23
2024-02-02T02:49:39.506Z,0.12
2024-02-02T02:52:06.485Z,0.30
2024-02-02T02:54:33.875Z,0.11
2024-02-02T02:57:01.958Z,0.55
2024-02-02T02:59:31.531Z,0.56
2024-02-02T03:01:58.354Z,0.43
2024-02-02T03:04:25.228Z,0.66
2024-02-02T03:06:52.227Z,0.69
2024-02-02T03:09:19.561Z,0.77
2024-02-02T03:11:46.362Z,1.10
2024-02-02T03:14:15.081Z,0.81
2024-02-02T03:16:41.894Z,0.88
2024-02-02T03:19:08.802Z,0.94
2024-02-02T03:21:36.367Z,1.27
2024-02-02T03:24:03.492Z,1.26
2024-02-02T03:26:30.273Z,1.49
2024-02-02T03:28:58.106Z,0.99
2024-02-02T03:31:25.018Z,1.07
2024-02-02T03:33:51.989Z,1.03
2024-02-02T03:36:18.904Z,1.15
2024-02-02T03:38:45.705Z,1.22
2024-02-02T03:41:12.483Z,1.12
2024-02-02T03:43:39.284Z,0.93
2024-02-02T03:46:06.067Z,0.83
2024-02-02T03:48:33.050Z,1.16
2024-02-02T03:50:59.954Z,1.33
2024-02-02T03:53:26.810Z,1.32
2024-02-02T03:55:53.653Z,0.88
2024-02-02T03:58:20.446Z,1.07
2024-02-02T04:00:47.517Z,1.02
2024-02-02T04:03:14.615Z,0.88
2024-02-02T04:05:41.629Z,0.59
2024-02-02T04:08:08.582Z,0.33
2024-02-02T04:10:35.363Z,0.52
2024-02-02T04:13:03.450Z,0.49
2024-02-02T04:15:33.150Z,0.20
2024-02-02T04:18:00.744Z,0.17
2024-02-02T04:20:27.720Z,0.11
2024-02-02T04:22:55.618Z,-0.28
2024-02-02T04:25:22.754Z,-0.19
2024-02-02T04:27:49.606Z,-0.12
2024-02-02T04:30:18.292Z,-0.95
2024-02-02T04:32:45.382Z,0.01
2024-02-02T04:35:12.279Z,0.41
2024-02-02T04:37:43.416Z,0.77
2024-02-02T04:40:13.281Z,0.19
2024-02-02T04:42:40.082Z,0.32
2024-02-02T04:45:07.115Z,0.20
2024-02-02T04:47:34.132Z,0.08
2024-02-02T04:50:00.989Z,0.51
2024-02-02T04:52:27.820Z,1.08
2024-02-02T04:54:56.870Z,0.84
2024-02-02T04:57:23.824Z,0.96
2024-02-02T04:59:50.816Z,0.72
2024-02-02T05:02:17.861Z,0.83
2024-02-02T05:04:44.806Z,1.02
2024-02-02T05:07:12.075Z,0.61
2024-02-02T05:09:48.097Z,0.46
2024-02-02T05:12:16.996Z,0.53
2024-02-02T05:14:44.076Z,0.53
2024-02-02T05:17:10.885Z,0.51
2024-02-02T05:19:37.747Z,0.51
2024-02-02T05:22:04.845Z,0.78
2024-02-02T05:24:43.162Z,0.53
2024-02-02T05:27:17.416Z,0.50
2024-02-02T05:29:45.519Z,0.63
2024-02-02T05:32:12.557Z,0.36
2024-02-02T05:34:39.449Z,0.43
2024-02-02T05:37:06.396Z,0.34
2024-02-02T05:39:33.456Z,0.32
2024-02-02T05:42:01.403Z,0.77
2024-02-02T05:44:28.389Z,0.41
2024-02-02T05:46:55.354Z,0.35
2024-02-02T05:49:22.746Z,-0.04
2024-02-02T05:51:49.763Z,0.66
2024-02-02T05:54:16.727Z,1.04
2024-02-02T05:56:43.574Z,0.04
2024-02-02T05:59:10.713Z,1.03
2024-02-02T06:01:37.601Z,1.08
2024-02-02T06:04:05.114Z,0.66
2024-02-02T06:06:32.218Z,-0.26
2024-02-02T06:09:00.767Z,-0.26
2024-02-02T06:11:28.005Z,-0.32
2024-02-02T06:13:57.297Z,-0.16
2024-02-02T06:16:26.055Z,-0.09
2024-02-02T06:18:53.084Z,0.10
2024-02-02T06:21:20.035Z,-0.18
2024-02-02T06:23:47.102Z,0.30
2024-02-02T06:26:13.986Z,0.03
2024-02-02T06:28:40.827Z,-0.53
2024-02-02T06:31:07.626Z,-0.62
2024-02-02T06:33:34.589Z,-0.67
2024-02-02T06:36:01.514Z,-0.59
2024-02-02T06:38:28.338Z,-0.42
2024-02-02T06:40:55.139Z,-0.49
2024-02-02T06:43:22.353Z,-0.68
2024-02-02T06:45:49.817Z,-0.54
2024-02-02T06:48:17.221Z,-0.24
2024-02-02T06:50:45.764Z,-0.33
2024-02-02T06:53:12.945Z,0.02
2024-02-02T06:55:39.853Z,0.34
2024-02-02T06:58:20.335Z,0.17
2024-02-02T07:00:47.580Z,0.28
2024-02-02T07:03:14.396Z,0.60
2024-02-02T07:05:44.903Z,0.29
2024-02-02T07:08:11.858Z,0.49
2024-02-02T07:10:38.711Z,0.67
2024-02-02T07:13:05.659Z,0.79
2024-02-02T07:15:36.576Z,1.01
2024-02-02T07:18:04.254Z,0.96
2024-02-02T07:20:31.591Z,1.02
2024-02-02T07:23:02.165Z,1.93
2024-02-02T07:25:38.007Z,2.30
2024-02-02T07:28:09.252Z,2.37
2024-02-02T07:30:45.121Z,2.80
2024-02-02T07:33:42.818Z,2.32
2024-02-02T07:36:34.831Z,2.56
2024-02-02T07:39:02.477Z,2.51
2024-02-02T07:41:30.502Z,2.45
2024-02-02T07:44:01.408Z,2.19
2024-02-02T07:46:28.953Z,1.89
2024-02-02T07:48:56.348Z,2.08
2024-02-02T07:51:25.420Z,2.20
2024-02-02T07:53:52.703Z,2.55
2024-02-02T07:56:21.726Z,2.17
2024-02-02T07:58:48.771Z,2.16
2024-02-02T08:01:16.331Z,2.80
2024-02-02T08:03:43.238Z,2.99
2024-02-02T08:06:10.565Z,2.73
2024-02-02T08:08:37.859Z,3.17
2024-02-02T08:11:04.915Z,3.16
2024-02-02T08:13:32.117Z,2.62
2024-02-02T08:15:59.359Z,2.72
2024-02-02T08:18:26.668Z,3.27
2024-02-02T08:20:53.698Z,2.87
2024-02-02T08:23:20.770Z,2.39
2024-02-02T08:25:47.681Z,2.37
2024-02-02T08:28:14.582Z,2.53
2024-02-02T08:30:41.608Z,2.74
2024-02-02T08:33:08.928Z,3.22
2024-02-02T08:35:35.673Z,3.04
2024-02-02T08:38:07.428Z,3.50
2024-02-02T08:40:39.957Z,4.45
2024-02-02T08:43:18.106Z,4.41
2024-02-02T08:46:09.226Z,5.11
2024-02-02T08:48:41.974Z,5.91
2024-02-02T08:51:24.856Z,6.54
2024-02-02T08:54:04.178Z,6.91
2024-02-02T08:56:31.058Z,6.73
2024-02-02T08:58:58.405Z,6.28
2024-02-02T09:01:39.826Z,7.02
2024-02-02T09:04:07.119Z,7.60
2024-02-02T09:06:44.704Z,7.92
2024-02-02T09:09:16.004Z,8.40
2024-02-02T09:11:48.773Z,8.51
2024-02-02T09:14:19.124Z,8.76
2024-02-02T09:16:51.833Z,8.86
2024-02-02T09:19:31.185Z,8.92
2024-02-02T09:22:02.472Z,9.37
2024-02-02T09:24:48.095Z,9.64
2024-02-02T09:27:18.964Z,10.29
2024-02-02T09:29:48.342Z,10.12
2024-02-02T09:32:19.142Z,10.89
2024-02-02T09:34:47.172Z,10.63
2024-02-02T09:37:32.541Z,9.84
2024-02-02T09:39:59.596Z,9.76
2024-02-02T09:42:49.221Z,10.16
2024-02-02T09:45:40.686Z,10.47
2024-02-02T09:48:18.827Z,10.83
2024-02-02T09:50:56.486Z,11.17
2024-02-02T09:53:45.871Z,11.07
2024-02-02T09:56:24.848Z,10.92
2024-02-02T09:59:05.564Z,11.21
2024-02-02T10:01:37.989Z,12.17
2024-02-02T10:04:21.017Z,11.88
2024-02-02T10:07:04.815Z,11.56
2024-02-02T10:10:11.791Z,11.46
2024-02-02T10:12:44.530Z,11.06
2024-02-02T10:15:23.431Z,10.56
2024-02-02T10:18:10.290Z,10.37
2024-02-02T10:20:55.129Z,10.20
2024-02-02T10:23:41.403Z,9.91
2024-02-02T10:26:37.740Z,9.57
2024-02-02T10:29:17.572Z,9.53
2024-02-02T10:32:12.818Z,9.60
2024-02-02T10:35:04.393Z,10.48
2024-02-02T10:37:35.930Z,10.53
2024-02-02T10:40:08.633Z,10.51
2024-02-02T10:42:45.946Z,10.51
2024-02-02T10:45:20.435Z,10.73
2024-02-02T10:48:08.546Z,10.49
2024-02-02T10:51:00.510Z,10.13
2024-02-02T10:54:10.330Z,10.06
2024-02-02T10:57:19.131Z,9.79
2024-02-02T11:00:11.518Z,10.17
2024-02-02T11:03:03.548Z,10.01
2024-02-02T11:06:26.582Z,9.99
2024-02-02T11:09:02.093Z,10.61
2024-02-02T11:11:34.510Z,11.00
2024-02-02T11:14:24.806Z,11.27
2024-02-02T11:17:00.486Z,11.74
2024-02-02T11:19:46.140Z,12.41
2024-02-02T11:22:25.188Z,12.84
2024-02-02T11:25:01.200Z,13.30
2024-02-02T11:27:37.747Z,13.44
2024-02-02T11:30:08.554Z,13.66
2024-02-02T11:32:41.490Z,13.87
2024-02-02T11:35:26.679Z,14.14
2024-02-02T11:38:40.701Z,14.57
2024-02-02T11:41:19.637Z,14.90
2024-02-02T11:43:46.874Z,15.23
2024-02-02T11:46:15.243Z,15.58
2024-02-02T11:48:44.903Z,15.70
2024-02-02T11:51:12.732Z,16.09
2024-02-02T11:53:53.248Z,15.66
2024-02-02T11:56:31.100Z,15.56
2024-02-02T11:59:28.148Z,15.25
2024-02-02T12:02:26.038Z,15.40
2024-02-02T12:05:22.463Z,16.03
2024-02-02T12:08:06.885Z,15.84
2024-02-02T12:10:40.509Z,15.77
2024-02-02T12:13:10.328Z,15.16
2024-02-02T12:15:37.356Z,15.14
2024-02-02T12:18:06.360Z,14.91
2024-02-02T12:20:34.316Z,14.62
2024-02-02T12:23:01.293Z,14.94
2024-02-02T12:25:29.194Z,14.17
2024-02-02T12:27:56.163Z,13.79
2024-02-02T12:30:23.610Z,13.50
2024-02-02T12:32:58.978Z,13.16
2024-02-02T12:35:27.466Z,12.99
2024-02-02T12:37:54.596Z,12.59
2024-02-02T12:40:21.871Z,12.79
2024-02-02T12:42:49.354Z,12.92
2024-02-02T12:45:16.751Z,12.91
2024-02-02T12:47:44.003Z,12.81
2024-02-02T12:50:22.535Z,12.73
2024-02-02T12:52:52.358Z,12.69
2024-02-02T12:55:22.297Z,12.53
2024-02-02T12:57:49.364Z,12.45
2024-02-02T13:00:16.950Z,12.51
2024-02-02T13:02:46.470Z,12.51
2024-02-02T13:05:17.975Z,12.53
2024-02-02T13:07:49.898Z,12.45
2024-02-02T13:10:50.057Z,12.33
2024-02-02T13:13:24.917Z,12.30
2024-02-02T13:15:52.886Z,12.14
2024-02-02T13:18:21.428Z,11.91
2024-02-02T13:20:51.289Z,11.78
2024-02-02T13:23:29.995Z,11.90
2024-02-02T13:26:04.719Z,12.15
2024-02-02T13:28:40.371Z,12.20
2024-02-02T13:31:13.418Z,12.25
2024-02-02T13:33:46.450Z,12.20
2024-02-02T13:36:18.348Z,12.24
2024-02-02T13:38:48.203Z,12.26
2024-02-02T13:41:20.436Z,12.16
2024-02-02T13:44:00.176Z,11.71
2024-02-02T13:46:27.464Z,11.64
2024-02-02T13:48:59.424Z,11.72
2024-02-02T13:51:27.892Z,11.84
2024-02-02T13:53:58.776Z,11.86
2024-02-02T13:56:28.108Z,11.66
2024-02-02T13:58:55.507Z,11.84
2024-02-02T14:01:24.115Z,11.85
2024-02-02T14:03:53.239Z,11.71
2024-02-02T14:06:21.089Z,11.82
2024-02-02T14:08:49.761Z,11.79
2024-02-02T14:11:27.771Z,11.18
2024-02-02T14:13:55.950Z,11.07
2024-02-02T14:16:24.210Z,10.97
2024-02-02T14:19:05.873Z,11.14
2024-02-02T14:21:34.635Z,11.15
2024-02-02T14:24:19.786Z,11.27
2024-02-02T14:26:57.294Z,11.50
2024-02-02T14:29:26.573Z,11.58
2024-02-02T14:31:54.978Z,11.64
2024-02-02T14:34:22.524Z,11.58
2024-02-02T14:36:49.437Z,11.52
2024-02-02T14:39:26.266Z,11.51
2024-02-02T14:41:55.689Z,11.20
2024-02-02T14:44:23.644Z,10.94
2024-02-02T14:46:50.614Z,10.83
2024-02-02T14:49:18.382Z,10.78
2024-02-02T14:51:45.415Z,10.62
2024-02-02T14:54:12.568Z,10.67
2024-02-02T14:56:39.749Z,10.65
2024-02-02T14:59:10.033Z,10.60
2024-02-02T15:01:40.649Z,10.41
2024-02-02T15:04:09.703Z,10.44
2024-02-02T15:06:39.146Z,10.50
2024-02-02T15:09:15.551Z,10.31
2024-02-02T15:11:43.732Z,10.20
2024-02-02T15:14:11.054Z,10.31
2024-02-02T15:16:38.174Z,10.25
2024-02-02T15:19:05.481Z,10.43
2024-02-02T15:21:33.339Z,10.61
2024-02-02T15:24:00.382Z,10.60
2024-02-02T15:26:27.543Z,10.55
2024-02-02T15:28:54.307Z,9.92
2024-02-02T15:31:22.911Z,9.62
2024-02-02T15:33:50.109Z,9.53
2024-02-02T15:36:17.161Z,9.64
2024-02-02T15:39:06.061Z,9.76
2024-02-02T15:41:33.368Z,9.83
2024-02-02T15:44:00.723Z,9.94
2024-02-02T15:46:27.551Z,9.61
2024-02-02T15:48:55.649Z,9.62
2024-02-02T15:51:24.243Z,9.48
2024-02-02T15:53:51.317Z,9.24
2024-02-02T15:56:19.640Z,9.18
2024-02-02T15:58:46.890Z,9.31
2024-02-02T16:01:30.396Z,9.14
2024-02-02T16:04:15.019Z,8.97
2024-02-02T16:07:02.693Z,8.91
2024-02-02T16:09:42.498Z,8.78
2024-02-02T16:12:34.793Z,8.58
2024-02-02T16:15:20.016Z,8.02
2024-02-02T16:20:41.110Z,7.69
2024-02-02T16:23:10.536Z,7.87
2024-02-02T16:25:40.264Z,7.61
2024-02-02T16:28:13.286Z,7.66
2024-02-02T16:30:50.389Z,7.69
2024-02-02T16:33:23.926Z,7.64
2024-02-02T16:35:54.496Z,7.55
2024-02-02T16:38:24.652Z,7.65
2024-02-02T16:40:53.840Z,7.64
2024-02-02T16:43:23.087Z,7.47
2024-02-02T16:45:51.831Z,7.33
2024-02-02T16:48:23.420Z,6.97
2024-02-02T16:50:58.279Z,7.15
2024-02-02T16:53:25.657Z,7.32
2024-02-02T16:55:52.927Z,7.19
2024-02-02T16:58:20.649Z,6.93
2024-02-02T17:00:48.451Z,6.77
2024-02-02T17:03:15.772Z,7.17
2024-02-02T17:05:42.700Z,7.05
2024-02-02T17:08:09.677Z,6.82
2024-02-02T17:10:36.502Z,6.73
2024-02-02T17:13:03.665Z,6.54
2024-02-02T17:15:31.276Z,6.73
2024-02-02T17:17:58.857Z,6.83
2024-02-02T17:20:27.170Z,7.16
2024-02-02T17:22:55.378Z,6.83
2024-02-02T17:25:22.257Z,6.87
2024-02-02T17:27:49.154Z,6.58
2024-02-02T17:30:18.047Z,6.39
2024-02-02T17:32:45.113Z,6.54
2024-02-02T17:35:11.972Z,6.57
2024-02-02T17:37:40.055Z,6.54
2024-02-02T17:40:08.589Z,6.94
2024-02-02T17:42:36.151Z,6.55
2024-02-02T17:45:03.092Z,7.03
2024-02-02T17:47:29.887Z,7.05
2024-02-02T17:49:58.139Z,6.79
2024-02-02T17:52:25.953Z,7.45
2024-02-02T17:54:52.881Z,7.62
2024-02-02T17:57:20.089Z,6.99
2024-02-02T17:59:46.882Z,6.62
2024-02-02T18:02:13.894Z,6.19
2024-02-02T18:04:40.858Z,5.97
2024-02-02T18:07:10.537Z,6.63
2024-02-02T18:09:40.192Z,6.41
2024-02-02T18:12:14.194Z,6.26
2024-02-02T18:14:41.836Z,6.11
2024-02-02T18:17:08.902Z,5.80
2024-02-02T18:19:35.817Z,5.83
2024-02-02T18:22:02.722Z,6.12
2024-02-02T18:24:29.592Z,6.29
2024-02-02T18:26:56.424Z,6.47
2024-02-02T18:29:23.218Z,6.28
2024-02-02T18:31:50.391Z,6.58
2024-02-02T18:34:17.142Z,6.58
2024-02-02T18:36:44.084Z,6.58
2024-02-02T18:39:13.809Z,6.68
2024-02-02T18:41:40.864Z,6.52
2024-02-02T18:44:11.642Z,6.53
2024-02-02T18:46:38.479Z,6.48
2024-02-02T18:49:05.891Z,6.69
2024-02-02T18:51:33.529Z,6.64
2024-02-02T18:54:00.420Z,6.82
2024-02-02T18:56:31.479Z,6.86
2024-02-02T18:58:58.510Z,6.96
2024-02-02T19:01:29.643Z,6.94
2024-02-02T19:03:57.593Z,6.80
2024-02-02T19:06:25.924Z,6.66
2024-02-02T19:08:53.635Z,6.69
2024-02-02T19:11:22.639Z,6.80
2024-02-02T19:13:50.511Z,6.42
2024-02-02T19:16:22.787Z,6.25
2024-02-02T19:18:51.230Z,6.05
2024-02-02T19:21:20.603Z,6.18
2024-02-02T19:23:51.780Z,6.33
2024-02-02T19:26:20.141Z,6.25
2024-02-02T19:28:47.730Z,6.39
2024-02-02T19:31:23.519Z,6.31
2024-02-02T19:33:52.899Z,6.20
2024-02-02T19:36:27.169Z,6.04
2024-02-02T19:38:55.976Z,6.30
2024-02-02T19:41:27.302Z,6.48
2024-02-02T19:43:55.482Z,6.25
2024-02-02T19:46:31.050Z,6.05
2024-02-02T19:49:00.838Z,5.57
2024-02-02T19:51:30.135Z,6.25
2024-02-02T19:53:58.359Z,6.30
2024-02-02T19:56:26.126Z,5.93
2024-02-02T19:58:53.936Z,5.76
2024-02-02T20:01:22.925Z,6.30
2024-02-02T20:03:51.810Z,6.06
2024-02-02T20:06:21.723Z,6.32
2024-02-02T20:08:51.984Z,6.32
2024-02-02T20:11:26.990Z,5.94
2024-02-02T20:13:54.911Z,5.41
2024-02-02T20:16:22.643Z,5.18
2024-02-02T20:18:50.907Z,5.23
2024-02-02T20:21:22.530Z,5.44
2024-02-02T20:23:53.152Z,4.88
2024-02-02T20:26:21.450Z,4.48
2024-02-02T20:28:56.382Z,4.93
2024-02-02T20:31:24.779Z,5.22
2024-02-02T20:33:53.182Z,4.80
2024-02-02T20:36:21.770Z,4.66
2024-02-02T20:38:49.670Z,4.83
2024-02-02T20:41:24.071Z,4.40
2024-02-02T20:43:53.910Z,4.38
2024-02-02T20:46:22.032Z,4.29
2024-02-02T20:48:50.803Z,3.95
2024-02-02T20:51:18.897Z,4.09
2024-02-02T20:53:46.389Z,3.86
2024-02-02T20:56:14.090Z,2.66
2024-02-02T20:58:41.333Z,3.66
2024-02-02T21:01:08.854Z,4.08
2024-02-02T21:03:37.340Z,3.87
2024-02-02T21:06:05.503Z,3.36
2024-02-02T21:08:33.182Z,3.65
2024-02-02T21:11:02.233Z,3.72
2024-02-02T21:13:29.690Z,3.76
2024-02-02T21:15:57.530Z,4.63
2024-02-02T21:18:25.657Z,4.00
2024-02-02T21:20:54.636Z,4.42
2024-02-02T21:23:22.282Z,3.88
2024-02-02T21:25:50.041Z,2.58
2024-02-02T21:28:18.940Z,2.98
2024-02-02T21:30:47.858Z,2.54
2024-02-02T21:33:19.839Z,2.98
2024-02-02T21:35:48.685Z,2.38
2024-02-02T21:38:15.633Z,3.34
2024-02-02T21:40:42.504Z,3.09
2024-02-02T21:43:09.589Z,2.99
2024-02-02T21:45:37.164Z,2.72
2024-02-02T21:48:04.495Z,3.05
2024-02-02T21:50:31.516Z,2.41
2024-02-02T21:53:04.196Z,2.62
2024-02-02T21:55:31.050Z,3.46
2024-02-02T21:57:57.829Z,3.47
2024-02-02T22:00:24.691Z,3.50
2024-02-02T22:02:51.514Z,3.44
2024-02-02T22:05:18.388Z,3.42
2024-02-02T22:07:45.370Z,2.31
2024-02-02T22:10:12.284Z,2.51
2024-02-02T22:12:39.822Z,2.72
2024-02-02T22:15:07.363Z,2.96
2024-02-02T22:17:34.262Z,2.55
2024-02-02T22:20:01.067Z,2.46
2024-02-02T22:22:28.006Z,2.38
2024-02-02T22:24:55.550Z,2.36
2024-02-02T22:27:23.872Z,2.32
2024-02-02T22:29:51.449Z,2.65
2024-02-02T22:32:21.137Z,2.19
2024-02-02T22:34:48.414Z,2.07
2024-02-02T22:37:15.803Z,1.92
2024-02-02T22:39:42.809Z,2.22
2024-02-02T22:42:09.651Z,2.04
2024-02-02T22:44:36.518Z,1.84
2024-02-02T22:47:03.437Z,2.10
2024-02-02T22:49:32.406Z,2.50
2024-02-02T22:51:59.305Z,2.81
2024-02-02T22:54:26.250Z,2.30
2024-02-02T22:56:53.193Z,2.35
2024-02-02T22:59:20.225Z,2.71
2024-02-02T23:01:47.444Z,2.88
2024-02-02T23:04:14.242Z,2.89
2024-02-02T23:06:41.196Z,2.82
2024-02-02T23:09:08.081Z,2.63
2024-02-02T23:11:34.900Z,2.69
2024-02-02T23:14:01.686Z,2.91
2024-02-02T23:16:28.488Z,2.75
2024-02-02T23:18:55.469Z,2.49
2024-02-02T23:21:22.315Z,1.90
2024-02-02T23:23:49.246Z,2.09
2024-02-02T23:26:16.132Z,2.07
2024-02-02T23:28:43.153Z,2.14
2024-02-02T23:31:09.945Z,2.70
2024-02-02T23:33:36.937Z,2.25
2024-02-02T23:36:04.124Z,2.80
2024-02-02T23:38:31.044Z,3.18
2024-02-02T23:40:58.009Z,3.43
2024-02-02T23:43:26.241Z,3.08
2024-02-02T23:45:53.199Z,2.79
2024-02-02T23:48:20.151Z,2.84
2024-02-02T23:50:47.148Z,2.77
2024-02-02T23:53:14.076Z,2.79
2024-02-02T23:55:40.911Z,2.76
2024-02-02T23:58:07.753Z,2.61
